createdAt,value
2018-05-11T00:00:12.682Z,0
2018-05-11T00:01:22.774Z,0
2018-05-11T00:02:32.593Z,0
2018-05-11T00:03:42.673Z,0
2018-05-11T00:04:52.751Z,0
2018-05-11T00:06:02.916Z,0
2018-05-11T00:07:12.734Z,0
2018-05-11T00:08:22.810Z,0
2018-05-11T00:09:32.905Z,0
2018-05-11T00:10:43.076Z,0
2018-05-11T00:11:53.207Z,0
2018-05-11T00:13:03.474Z,0
2018-05-11T00:14:13.563Z,0
2018-05-11T00:15:23.642Z,0
2018-05-11T00:16:33.732Z,0
2018-05-11T00:17:43.797Z,0
2018-05-11T00:18:53.657Z,0
2018-05-11T00:20:03.728Z,0
2018-05-11T00:21:13.268Z,0
2018-05-11T00:22:23.345Z,0
2018-05-11T00:23:33.673Z,0
2018-05-11T00:24:43.869Z,0
2018-05-11T00:25:53.964Z,0
2018-05-11T00:27:03.516Z,0
2018-05-11T00:28:13.590Z,0
2018-05-11T00:29:23.676Z,0
2018-05-11T00:30:33.555Z,0
2018-05-11T00:31:43.638Z,0
2018-05-11T00:32:53.721Z,0
2018-05-11T00:34:03.818Z,0
2018-05-11T00:35:13.895Z,0
2018-05-11T00:36:23.713Z,0
2018-05-11T00:37:33.797Z,0
2018-05-11T00:38:43.628Z,0
2018-05-11T00:39:53.704Z,0
2018-05-11T00:41:03.794Z,0
2018-05-11T00:42:13.908Z,0
2018-05-11T00:43:23.454Z,0
2018-05-11T00:44:33.532Z,0
2018-05-11T00:45:43.346Z,0
2018-05-11T00:46:53.431Z,0
2018-05-11T00:48:03.506Z,0
2018-05-11T00:49:13.322Z,0
2018-05-11T00:50:23.135Z,0
2018-05-11T00:51:33.216Z,0
2018-05-11T00:52:43.325Z,0
2018-05-11T00:53:53.378Z,0
2018-05-11T00:55:03.469Z,0
2018-05-11T00:56:13.547Z,0
2018-05-11T00:57:23.619Z,0
2018-05-11T00:58:33.701Z,0
2018-05-11T00:59:43.807Z,0
2018-05-11T01:00:53.898Z,0
2018-05-11T01:02:03.988Z,0
2018-05-11T01:03:14.077Z,0
2018-05-11T01:04:24.177Z,0
2018-05-11T01:05:34.032Z,0
2018-05-11T01:06:44.092Z,0
2018-05-11T01:07:54.184Z,0
2018-05-11T01:09:03.735Z,0
2018-05-11T01:10:13.816Z,0
2018-05-11T01:11:23.889Z,0
2018-05-11T01:12:33.458Z,0
2018-05-11T01:13:43.293Z,0
2018-05-11T01:14:53.125Z,0
2018-05-11T01:16:03.218Z,0
2018-05-11T01:17:13.339Z,0
2018-05-11T01:18:23.419Z,0
2018-05-11T01:19:33.583Z,0
2018-05-11T01:20:43.673Z,0
2018-05-11T01:21:53.762Z,0
2018-05-11T01:23:03.591Z,0
2018-05-11T01:24:13.404Z,0
2018-05-11T01:25:23.478Z,0
2018-05-11T01:26:33.310Z,0
2018-05-11T01:27:43.394Z,0
2018-05-11T01:28:53.468Z,0
2018-05-11T01:30:03.545Z,0
2018-05-11T01:31:13.388Z,0
2018-05-11T01:32:23.206Z,0
2018-05-11T01:33:33.312Z,0
2018-05-11T01:34:43.415Z,0
2018-05-11T01:35:53.485Z,0
2018-05-11T01:37:03.561Z,0
2018-05-11T01:38:13.641Z,0
2018-05-11T01:39:23.723Z,0
2018-05-11T01:40:33.845Z,0
2018-05-11T01:41:43.933Z,0
2018-05-11T01:42:53.508Z,0
2018-05-11T01:44:03.092Z,0
2018-05-11T01:45:12.953Z,0
2018-05-11T01:46:23.132Z,0
2018-05-11T01:47:32.935Z,0
2018-05-11T01:48:43.014Z,0
2018-05-11T01:49:53.085Z,0
2018-05-11T01:51:03.159Z,0
2018-05-11T01:52:12.993Z,0
2018-05-11T01:53:22.802Z,0
2018-05-11T01:54:32.880Z,0
2018-05-11T01:55:42.964Z,0
2018-05-11T01:56:53.040Z,0
2018-05-11T01:58:02.853Z,0
2018-05-11T01:59:12.725Z,0
2018-05-11T02:00:22.308Z,0
2018-05-11T02:01:32.389Z,0
2018-05-11T02:02:42.466Z,0
2018-05-11T02:03:52.271Z,0
2018-05-11T02:05:02.358Z,0
2018-05-11T02:06:12.459Z,0
2018-05-11T02:07:22.531Z,0
2018-05-11T02:08:32.603Z,0
2018-05-11T02:09:42.745Z,0
2018-05-11T02:10:52.854Z,0
2018-05-11T02:12:02.424Z,0
2018-05-11T02:13:12.230Z,0
2018-05-11T02:14:22.317Z,0
2018-05-11T02:15:32.397Z,0
2018-05-11T02:16:42.240Z,0
2018-05-11T02:17:52.303Z,0
2018-05-11T02:19:02.106Z,0
2018-05-11T02:20:12.168Z,0
2018-05-11T02:21:22.037Z,0
2018-05-11T02:22:32.099Z,0
2018-05-11T02:23:41.923Z,0
2018-05-11T02:24:52.011Z,0
2018-05-11T02:26:02.695Z,0
2018-05-11T02:27:12.872Z,0
2018-05-11T02:28:22.963Z,0
2018-05-11T02:29:33.060Z,0
2018-05-11T02:30:43.148Z,0
2018-05-11T02:31:53.268Z,0
2018-05-11T02:33:03.349Z,0
2018-05-11T02:34:13.444Z,0
2018-05-11T02:35:23.659Z,0
2018-05-11T02:36:33.507Z,0
2018-05-11T02:37:43.583Z,0
2018-05-11T02:38:53.407Z,0
2018-05-11T02:40:03.506Z,0
2018-05-11T02:41:13.845Z,0
2018-05-11T02:42:23.953Z,0
2018-05-11T02:43:34.043Z,0
2018-05-11T02:44:44.193Z,0
2018-05-11T02:45:54.077Z,0
2018-05-11T02:47:03.911Z,0
2018-05-11T02:48:13.983Z,0
2018-05-11T02:49:24.067Z,0
2018-05-11T02:50:34.254Z,0
2018-05-11T02:51:43.799Z,0
2018-05-11T02:52:53.885Z,0
2018-05-11T02:54:03.962Z,0
2018-05-11T02:55:14.067Z,0
2018-05-11T02:56:24.205Z,0
2018-05-11T02:57:34.291Z,0
2018-05-11T02:58:44.108Z,0
2018-05-11T02:59:53.955Z,0
2018-05-11T03:01:04.037Z,0
2018-05-11T03:02:13.852Z,0
2018-05-11T03:34:54.000Z,10
2018-05-11T03:36:03.804Z,10
2018-05-11T03:37:13.350Z,10
2018-05-11T03:38:23.433Z,10
2018-05-11T03:39:33.502Z,15
2018-05-11T03:40:43.584Z,15
2018-05-11T03:41:53.393Z,15
2018-05-11T03:43:03.457Z,20
2018-05-11T03:44:13.522Z,20
2018-05-11T03:45:23.578Z,20
2018-05-11T03:46:33.668Z,25
2018-05-11T03:47:43.755Z,25
2018-05-11T03:48:53.867Z,30
2018-05-11T03:50:03.941Z,30
2018-05-11T03:51:13.754Z,30
2018-05-11T03:52:23.819Z,35
2018-05-11T03:53:33.375Z,35
2018-05-11T03:54:42.948Z,35
2018-05-11T03:55:53.032Z,40
2018-05-11T03:57:03.139Z,40
2018-05-11T03:58:13.222Z,40
2018-05-11T03:59:23.300Z,40
2018-05-11T04:00:33.367Z,40
2018-05-11T04:01:43.197Z,45
2018-05-11T04:02:53.277Z,45
2018-05-11T04:04:03.373Z,45
2018-05-11T04:05:13.184Z,45
2018-05-11T04:06:23.278Z,50
2018-05-11T04:07:33.120Z,50
2018-05-11T04:08:42.933Z,50
2018-05-11T04:09:52.759Z,50
2018-05-11T04:11:02.825Z,55
2018-05-11T04:12:12.906Z,55
2018-05-11T04:13:22.893Z,55
2018-05-11T04:14:32.702Z,60
2018-05-11T04:15:42.567Z,60
2018-05-11T04:16:52.661Z,60
2018-05-11T04:18:02.735Z,60
2018-05-11T04:19:12.548Z,60
2018-05-11T04:20:22.349Z,65
2018-05-11T04:21:32.450Z,65
2018-05-11T04:22:42.521Z,65
2018-05-11T04:23:52.639Z,65
2018-05-11T04:25:02.486Z,65
2018-05-11T04:26:12.598Z,65
2018-05-11T04:27:22.675Z,70
2018-05-11T04:28:32.506Z,70
2018-05-11T04:29:42.303Z,70
2018-05-11T04:30:52.384Z,70
2018-05-11T04:32:02.475Z,70
2018-05-11T04:33:12.618Z,65
2018-05-11T04:34:22.443Z,70
2018-05-11T04:35:32.521Z,70
2018-05-11T04:36:42.621Z,75
2018-05-11T04:37:52.466Z,80
2018-05-11T04:39:02.558Z,85
2018-05-11T04:40:12.651Z,90
2018-05-11T04:41:22.745Z,95
2018-05-11T04:42:32.298Z,110
2018-05-11T04:43:42.120Z,125
2018-05-11T04:44:52.211Z,190
2018-05-11T04:46:02.307Z,280
2018-05-11T04:47:12.399Z,395
2018-05-11T04:48:22.479Z,420
2018-05-11T04:49:32.294Z,380
2018-05-11T04:50:42.393Z,360
2018-05-11T04:51:52.476Z,365
2018-05-11T04:53:02.296Z,385
2018-05-11T04:54:12.367Z,360
2018-05-11T04:55:22.177Z,350
2018-05-11T04:56:32.244Z,345
2018-05-11T04:57:42.324Z,305
2018-05-11T04:58:52.388Z,360
2018-05-11T05:00:02.478Z,355
2018-05-11T05:01:12.311Z,345
2018-05-11T05:02:22.426Z,340
2018-05-11T05:03:32.603Z,345
2018-05-11T05:04:42.727Z,350
2018-05-11T05:05:52.553Z,345
2018-05-11T05:07:02.363Z,330
2018-05-11T05:08:12.489Z,355
2018-05-11T05:09:22.297Z,385
2018-05-11T05:10:32.617Z,365
2018-05-11T05:11:42.708Z,335
2018-05-11T05:12:52.791Z,340
2018-05-11T05:14:02.879Z,335
2018-05-11T05:15:12.700Z,355
2018-05-11T05:16:22.527Z,315
2018-05-11T05:17:32.613Z,240
2018-05-11T05:18:42.703Z,220
2018-05-11T05:19:52.573Z,225
2018-05-11T05:21:02.647Z,200
2018-05-11T05:22:12.206Z,185
2018-05-11T05:23:22.298Z,175
2018-05-11T05:24:31.872Z,165
2018-05-11T05:25:41.709Z,150
2018-05-11T05:26:51.544Z,140
2018-05-11T05:28:01.366Z,135
2018-05-11T05:29:11.537Z,135
2018-05-11T05:30:21.113Z,135
2018-05-11T05:31:31.250Z,135
2018-05-11T05:32:41.348Z,135
2018-05-11T05:33:51.153Z,135
2018-05-11T05:35:01.246Z,135
2018-05-11T05:36:11.074Z,135
2018-05-11T05:37:21.156Z,135
2018-05-11T05:38:30.961Z,135
2018-05-11T05:39:41.049Z,140
2018-05-11T05:40:51.145Z,140
2018-05-11T05:42:01.258Z,145
2018-05-11T05:43:11.365Z,145
2018-05-11T05:44:21.465Z,150
2018-05-11T05:45:31.537Z,150
2018-05-11T05:46:41.628Z,155
2018-05-11T05:47:51.194Z,165
2018-05-11T05:49:01.288Z,170
2018-05-11T05:50:11.369Z,175
2018-05-11T05:51:21.464Z,180
2018-05-11T05:52:31.279Z,200
2018-05-11T05:53:41.364Z,200
2018-05-11T05:54:50.929Z,195
2018-05-11T05:56:00.508Z,200
2018-05-11T05:57:10.589Z,200
2018-05-11T05:58:20.679Z,210
2018-05-11T05:59:30.230Z,210
2018-05-11T06:00:40.330Z,205
2018-05-11T06:01:50.421Z,210
2018-05-11T06:03:00.498Z,220
2018-05-11T06:04:10.601Z,220
2018-05-11T06:05:20.411Z,215
2018-05-11T06:06:30.549Z,215
2018-05-11T06:07:40.644Z,210
2018-05-11T06:08:50.456Z,205
2018-05-11T06:10:00.010Z,195
2018-05-11T06:11:09.830Z,205
2018-05-11T06:12:19.934Z,215
2018-05-11T06:13:29.742Z,215
2018-05-11T06:14:39.305Z,220
2018-05-11T06:15:49.386Z,220
2018-05-11T06:16:59.465Z,220
2018-05-11T06:18:09.596Z,220
2018-05-11T06:19:19.409Z,220
2018-05-11T06:20:29.485Z,220
2018-05-11T06:21:39.040Z,215
2018-05-11T06:22:48.850Z,215
2018-05-11T06:23:58.938Z,215
2018-05-11T06:25:08.803Z,215
2018-05-11T06:26:18.893Z,215
2018-05-11T06:27:29.063Z,215
2018-05-11T06:28:39.146Z,215
2018-05-11T06:29:49.036Z,215
2018-05-11T06:30:58.867Z,215
2018-05-11T06:32:08.959Z,210
2018-05-11T06:33:19.044Z,205
2018-05-11T06:34:29.339Z,200
2018-05-11T06:35:39.435Z,200
2018-05-11T06:36:49.514Z,215
2018-05-11T06:37:59.335Z,230
2018-05-11T06:39:09.426Z,235
2018-05-11T06:40:19.530Z,230
2018-05-11T06:41:29.635Z,230
2018-05-11T06:42:39.728Z,230
2018-05-11T06:43:49.956Z,225
2018-05-11T06:44:59.779Z,220
2018-05-11T06:46:09.917Z,220
2018-05-11T06:47:20.083Z,220
2018-05-11T06:48:29.899Z,215
2018-05-11T06:49:39.971Z,205
2018-05-11T06:50:49.773Z,205
2018-05-11T06:51:59.878Z,200
2018-05-11T06:53:09.981Z,200
2018-05-11T06:54:20.070Z,205
2018-05-11T06:55:30.174Z,205
2018-05-11T06:56:40.347Z,205
2018-05-11T06:57:50.167Z,205
2018-05-11T06:59:00.301Z,205
2018-05-11T07:00:10.373Z,210
2018-05-11T07:01:20.193Z,215
2018-05-11T07:02:30.309Z,215
2018-05-11T07:03:40.398Z,215
2018-05-11T07:04:50.488Z,205
2018-05-11T07:06:00.584Z,190
2018-05-11T07:07:10.691Z,195
2018-05-11T07:08:20.775Z,190
2018-05-11T07:09:30.596Z,195
2018-05-11T07:10:40.418Z,210
2018-05-11T07:11:50.496Z,210
2018-05-11T07:13:00.575Z,195
2018-05-11T07:14:10.651Z,220
2018-05-11T07:15:20.738Z,205
2018-05-11T07:16:30.822Z,205
2018-05-11T07:17:40.617Z,220
2018-05-11T07:18:50.719Z,245
2018-05-11T07:20:00.817Z,230
2018-05-11T07:21:10.892Z,240
2018-05-11T07:22:20.960Z,225
2018-05-11T07:23:31.050Z,235
2018-05-11T07:24:40.856Z,245
2018-05-11T07:25:51.340Z,240
2018-05-11T07:27:01.180Z,240
2018-05-11T07:28:11.017Z,245
2018-05-11T07:29:20.919Z,255
2018-05-11T07:30:30.750Z,280
2018-05-11T07:31:40.063Z,285
2018-05-11T07:32:50.157Z,260
2018-05-11T07:34:00.035Z,255
2018-05-11T07:35:10.326Z,250
2018-05-11T07:36:20.145Z,265
2018-05-11T07:37:29.950Z,260
2018-05-11T07:38:40.042Z,270
2018-05-11T07:39:50.181Z,260
2018-05-11T07:41:00.275Z,260
2018-05-11T07:42:10.085Z,220
2018-05-11T07:43:20.384Z,220
2018-05-11T07:44:30.231Z,215
2018-05-11T07:45:40.045Z,200
2018-05-11T07:46:49.881Z,190
2018-05-11T07:47:59.703Z,185
2018-05-11T07:49:09.804Z,180
2018-05-11T07:50:19.881Z,175
2018-05-11T07:51:30.171Z,175
2018-05-11T07:52:39.737Z,175
2018-05-11T07:53:49.814Z,180
2018-05-11T07:54:59.636Z,175
2018-05-11T07:56:09.250Z,180
2018-05-11T07:57:19.079Z,185
2018-05-11T07:58:29.167Z,185
2018-05-11T07:59:39.255Z,185
2018-05-11T08:00:49.375Z,185
2018-05-11T08:01:59.460Z,190
2018-05-11T08:03:09.564Z,195
2018-05-11T08:04:19.665Z,195
2018-05-11T08:05:29.483Z,195
2018-05-11T08:06:39.550Z,200
2018-05-11T08:07:49.365Z,200
2018-05-11T08:08:59.223Z,205
2018-05-11T08:10:09.310Z,205
2018-05-11T08:11:19.109Z,210
2018-05-11T08:12:29.278Z,210
2018-05-11T08:13:39.392Z,215
2018-05-11T08:14:49.471Z,220
2018-05-11T08:15:59.295Z,220
2018-05-11T08:17:09.386Z,225
2018-05-11T08:18:19.211Z,230
2018-05-11T08:19:28.770Z,230
2018-05-11T08:20:38.858Z,230
2018-05-11T08:21:49.058Z,230
2018-05-11T08:22:58.884Z,225
2018-05-11T08:24:08.966Z,220
2018-05-11T08:25:18.810Z,215
2018-05-11T08:26:28.898Z,220
2018-05-11T08:27:38.971Z,215
2018-05-11T08:28:49.063Z,210
2018-05-11T08:29:59.155Z,215
2018-05-11T08:31:08.976Z,210
2018-05-11T08:32:18.523Z,205
2018-05-11T08:33:28.620Z,200
2018-05-11T08:34:38.424Z,200
2018-05-11T08:35:48.681Z,200
2018-05-11T08:36:58.600Z,200
2018-05-11T08:38:07.893Z,195
2018-05-11T08:39:17.781Z,195
2018-05-11T08:40:27.610Z,195
2018-05-11T08:41:37.719Z,195
2018-05-11T08:42:47.804Z,195
2018-05-11T08:43:57.914Z,195
2018-05-11T08:45:08.073Z,200
2018-05-11T08:46:18.170Z,205
2018-05-11T08:47:28.287Z,210
2018-05-11T08:48:38.351Z,220
2018-05-11T08:49:48.447Z,225
2018-05-11T08:50:58.548Z,235
2018-05-11T08:52:08.680Z,235
2018-05-11T08:53:18.775Z,240
2018-05-11T08:54:28.867Z,245
2018-05-11T08:55:38.963Z,255
2018-05-11T08:56:48.830Z,260
2018-05-11T08:57:58.408Z,270
2018-05-11T08:59:08.245Z,275
2018-05-11T09:00:18.086Z,285
2018-05-11T09:01:28.184Z,305
2018-05-11T09:02:38.261Z,345
2018-05-11T09:03:48.103Z,310
2018-05-11T09:04:58.196Z,315
2018-05-11T09:06:08.297Z,300
2018-05-11T09:07:18.373Z,300
2018-05-11T09:08:28.493Z,295
2018-05-11T09:09:38.330Z,295
2018-05-11T09:10:48.430Z,300
2018-05-11T09:11:58.531Z,300
2018-05-11T09:13:08.629Z,305
2018-05-11T09:14:18.736Z,300
2018-05-11T09:15:28.301Z,300
2018-05-11T09:16:38.411Z,310
2018-05-11T09:17:48.242Z,315
2018-05-11T09:18:58.334Z,330
2018-05-11T09:20:08.423Z,335
2018-05-11T09:21:18.059Z,340
2018-05-11T09:22:28.151Z,340
2018-05-11T09:23:38.232Z,325
2018-05-11T09:24:48.345Z,375
2018-05-11T09:25:58.432Z,375
2018-05-11T09:27:08.254Z,350
2018-05-11T09:28:18.348Z,340
2018-05-11T09:29:28.162Z,355
2018-05-11T09:30:38.243Z,300
2018-05-11T09:31:48.330Z,280
2018-05-11T09:32:58.441Z,265
2018-05-11T09:34:08.529Z,260
2018-05-11T09:35:18.610Z,255
2018-05-11T09:36:28.426Z,250
2018-05-11T09:37:38.257Z,250
2018-05-11T09:38:48.341Z,255
2018-05-11T09:39:58.990Z,240
2018-05-11T09:41:09.092Z,235
2018-05-11T09:42:19.183Z,230
2018-05-11T09:43:29.273Z,225
2018-05-11T09:44:39.348Z,220
2018-05-11T09:45:49.443Z,220
2018-05-11T09:46:59.578Z,225
2018-05-11T09:48:09.670Z,225
2018-05-11T09:49:19.836Z,230
2018-05-11T09:50:29.689Z,240
2018-05-11T09:51:39.510Z,250
2018-05-11T09:52:49.395Z,260
2018-05-11T09:53:59.468Z,270
2018-05-11T09:55:09.723Z,265
2018-05-11T09:56:19.914Z,265
2018-05-11T09:57:29.980Z,265
2018-05-11T09:58:39.803Z,265
2018-05-11T09:59:49.360Z,265
2018-05-11T10:00:59.771Z,260
2018-05-11T10:02:09.868Z,260
2018-05-11T10:03:19.926Z,255
2018-05-11T10:04:29.769Z,250
2018-05-11T10:05:39.841Z,250
2018-05-11T10:06:49.922Z,245
2018-05-11T10:07:59.898Z,235
2018-05-11T10:09:09.720Z,230
2018-05-11T10:10:19.596Z,230
2018-05-11T10:11:29.675Z,225
2018-05-11T10:12:39.761Z,225
2018-05-11T10:13:50.119Z,230
2018-05-11T10:14:59.949Z,230
2018-05-11T10:16:09.860Z,240
2018-05-11T10:17:19.961Z,250
2018-05-11T10:18:30.048Z,250
2018-05-11T10:19:39.613Z,255
2018-05-11T10:20:49.929Z,260
2018-05-11T10:22:00.076Z,275
2018-05-11T10:23:09.898Z,275
2018-05-11T10:24:19.996Z,280
2018-05-11T10:25:30.088Z,285
2018-05-11T10:26:39.910Z,295
2018-05-11T10:27:49.731Z,305
2018-05-11T10:29:00.406Z,305
2018-05-11T10:30:10.156Z,305
2018-05-11T10:31:20.247Z,305
2018-05-11T10:32:30.124Z,305
2018-05-11T10:33:40.215Z,305
2018-05-11T10:34:50.316Z,305
2018-05-11T10:36:00.408Z,305
2018-05-11T10:37:10.504Z,305
2018-05-11T10:38:20.337Z,305
2018-05-11T10:39:30.469Z,305
2018-05-11T10:40:40.584Z,310
2018-05-11T10:41:50.680Z,330
2018-05-11T10:43:00.784Z,320
2018-05-11T10:44:10.627Z,330
2018-05-11T10:45:20.734Z,335
2018-05-11T10:46:31.081Z,340
2018-05-11T10:47:41.177Z,340
2018-05-11T10:48:51.802Z,345
2018-05-11T10:50:01.929Z,340
2018-05-11T10:51:12.091Z,330
2018-05-11T10:52:22.181Z,330
2018-05-11T10:53:32.037Z,320
2018-05-11T10:54:42.114Z,320
2018-05-11T10:55:52.183Z,315
2018-05-11T10:57:02.315Z,315
2018-05-11T10:58:12.153Z,320
2018-05-11T10:59:22.239Z,325
2018-05-11T11:00:32.066Z,325
2018-05-11T11:01:42.154Z,330
2018-05-11T11:02:52.088Z,335
2018-05-11T11:04:01.896Z,335
2018-05-11T11:05:12.000Z,360
2018-05-11T11:06:22.070Z,335
2018-05-11T11:07:32.156Z,385
2018-05-11T11:08:42.257Z,385
2018-05-11T11:09:52.104Z,380
2018-05-11T11:11:02.195Z,350
2018-05-11T11:12:12.017Z,360
2018-05-11T11:13:21.828Z,395
2018-05-11T11:14:31.994Z,370
2018-05-11T11:15:42.078Z,410
2018-05-11T11:16:52.150Z,395
2018-05-11T11:18:02.238Z,395
2018-05-11T11:19:12.328Z,375
2018-05-11T11:20:22.470Z,355
2018-05-11T11:21:32.832Z,390
2018-05-11T11:22:42.910Z,385
2018-05-11T11:23:53.005Z,385
2018-05-11T11:25:03.117Z,385
2018-05-11T11:26:13.474Z,380
2018-05-11T11:27:23.293Z,375
2018-05-11T11:28:33.397Z,365
2018-05-11T11:29:43.506Z,355
2018-05-11T11:30:53.606Z,350
2018-05-11T11:32:03.752Z,335
2018-05-11T11:33:13.851Z,325
2018-05-11T11:34:24.179Z,320
2018-05-11T11:35:34.296Z,320
2018-05-11T11:36:44.413Z,315
2018-05-11T11:37:54.527Z,305
2018-05-11T11:39:04.637Z,275
2018-05-11T11:40:14.722Z,270
2018-05-11T11:41:24.838Z,295
2018-05-11T11:42:34.667Z,225
2018-05-11T11:43:44.501Z,290
2018-05-11T11:44:54.599Z,290
2018-05-11T11:46:04.726Z,285
2018-05-11T11:47:14.565Z,280
2018-05-11T11:48:24.397Z,275
2018-05-11T11:49:34.239Z,270
2018-05-11T11:50:44.332Z,260
2018-05-11T11:51:54.518Z,260
2018-05-11T11:53:04.628Z,260
2018-05-11T11:54:14.806Z,255
2018-05-11T11:55:24.903Z,255
2018-05-11T11:56:35.344Z,255
2018-05-11T11:57:45.471Z,255
2018-05-11T11:58:55.386Z,255
2018-05-11T12:00:05.585Z,250
2018-05-11T12:01:15.203Z,250
2018-05-11T12:02:25.283Z,250
2018-05-11T12:03:35.379Z,250
2018-05-11T12:04:45.477Z,250
2018-05-11T12:05:55.583Z,245
2018-05-11T12:07:05.444Z,255
2018-05-11T12:08:15.537Z,250
2018-05-11T12:09:25.655Z,245
2018-05-11T12:10:35.502Z,240
2018-05-11T12:11:46.010Z,230
2018-05-11T12:12:56.171Z,240
2018-05-11T12:14:06.276Z,245
2018-05-11T12:15:16.108Z,250
2018-05-11T12:16:26.201Z,245
2018-05-11T12:17:36.297Z,245
2018-05-11T12:18:46.371Z,245
2018-05-11T12:19:56.504Z,245
2018-05-11T12:21:06.435Z,245
2018-05-11T12:31:40.044Z,245
2018-05-11T12:32:49.874Z,170
2018-05-11T12:33:59.977Z,245
2018-05-11T12:35:10.132Z,245
2018-05-11T12:36:19.968Z,240
2018-05-11T12:37:29.852Z,240
2018-05-11T12:38:39.954Z,240
2018-05-11T12:39:50.791Z,240
2018-05-11T12:41:01.257Z,235
2018-05-11T12:42:11.905Z,225
2018-05-11T12:43:22.111Z,215
2018-05-11T12:44:32.464Z,225
2018-05-11T12:45:42.910Z,225
2018-05-11T12:46:53.521Z,230
2018-05-11T12:48:04.201Z,230
2018-05-11T12:49:14.447Z,230
2018-05-11T12:50:24.831Z,230
2018-05-11T12:51:34.961Z,230
2018-05-11T12:52:45.740Z,230
2018-05-11T12:53:56.397Z,225
2018-05-11T12:55:07.044Z,225
2018-05-11T12:56:17.391Z,225
2018-05-11T12:57:28.234Z,225
2018-05-11T12:58:39.160Z,225
2018-05-11T12:59:49.294Z,225
2018-05-11T13:00:59.479Z,220
2018-05-11T13:02:09.836Z,215
2018-05-11T13:03:19.943Z,180
2018-05-11T13:04:30.043Z,205
2018-05-11T13:05:40.127Z,220
2018-05-11T13:06:50.358Z,225
2018-05-11T13:08:00.469Z,235
2018-05-11T13:09:10.587Z,230
2018-05-11T13:10:20.696Z,235
2018-05-11T13:11:30.787Z,235
2018-05-11T13:12:40.685Z,235
2018-05-11T13:13:50.508Z,235
2018-05-11T13:15:00.601Z,235
2018-05-11T13:16:10.171Z,235
2018-05-11T13:17:20.552Z,240
2018-05-11T13:18:30.387Z,235
2018-05-11T13:19:40.195Z,230
2018-05-11T13:20:50.638Z,230
2018-05-11T13:22:01.024Z,225
2018-05-11T13:23:10.598Z,215
2018-05-11T13:24:20.756Z,155
2018-05-11T13:25:30.858Z,155
2018-05-11T13:26:40.687Z,155
2018-05-11T13:27:50.514Z,185
2018-05-11T13:29:00.602Z,210
2018-05-11T13:30:10.489Z,225
2018-05-11T13:31:20.595Z,230
2018-05-11T13:32:30.694Z,240
2018-05-11T13:33:40.796Z,230
2018-05-11T13:34:50.880Z,240
2018-05-11T13:36:00.969Z,245
2018-05-11T13:37:10.809Z,230
2018-05-11T13:38:20.908Z,185
2018-05-11T13:39:31.041Z,170
2018-05-11T13:40:40.862Z,165
2018-05-11T13:41:50.976Z,165
2018-05-11T13:43:01.093Z,165
2018-05-11T13:44:11.174Z,215
2018-05-11T13:45:21.313Z,185
2018-05-11T13:46:31.157Z,175
2018-05-11T13:47:41.502Z,170
2018-05-11T13:48:51.616Z,165
2018-05-11T13:50:01.713Z,170
2018-05-11T13:51:11.826Z,170
2018-05-11T13:52:21.664Z,170
2018-05-11T13:53:31.756Z,175
2018-05-11T13:54:41.319Z,185
2018-05-11T13:55:51.142Z,165
2018-05-11T13:57:01.253Z,160
2018-05-11T13:58:11.083Z,160
2018-05-11T13:59:21.194Z,165
2018-05-11T14:00:31.287Z,200
2018-05-11T14:01:41.127Z,215
2018-05-11T14:02:51.207Z,220
2018-05-11T14:04:01.309Z,220
2018-05-11T14:05:11.457Z,225
2018-05-11T14:06:21.288Z,220
2018-05-11T14:07:31.395Z,225
2018-05-11T14:08:40.974Z,225
2018-05-11T14:09:50.847Z,220
2018-05-11T14:11:01.030Z,215
2018-05-11T14:12:11.205Z,205
2018-05-11T14:13:21.291Z,170
2018-05-11T14:14:31.396Z,145
2018-05-11T14:15:41.477Z,140
2018-05-11T14:16:51.647Z,190
2018-05-11T14:18:02.035Z,180
2018-05-11T14:19:12.137Z,160
2018-05-11T14:20:22.227Z,140
2018-05-11T14:21:32.329Z,165
2018-05-11T14:22:42.488Z,190
2018-05-11T14:23:52.595Z,190
2018-05-11T14:25:03.101Z,200
2018-05-11T14:26:13.324Z,200
2018-05-11T14:27:23.433Z,205
2018-05-11T14:28:33.542Z,205
2018-05-11T14:29:43.377Z,205
2018-05-11T14:30:53.494Z,200
2018-05-11T14:32:03.619Z,200
2018-05-11T14:33:13.735Z,200
2018-05-11T14:34:23.549Z,200
2018-05-11T14:35:33.707Z,200
2018-05-11T14:36:43.828Z,200
2018-05-11T14:37:53.906Z,200
2018-05-11T14:39:04.024Z,200
2018-05-11T14:40:14.111Z,200
2018-05-11T14:41:23.938Z,200
2018-05-11T14:42:34.054Z,200
2018-05-11T14:43:44.163Z,200
2018-05-11T14:44:54.247Z,195
2018-05-11T14:46:04.380Z,195
2018-05-11T14:47:14.492Z,195
2018-05-11T14:48:24.624Z,190
2018-05-11T14:49:34.757Z,195
2018-05-11T14:50:44.940Z,195
2018-05-11T14:51:55.093Z,195
2018-05-11T14:53:05.232Z,195
2018-05-11T14:54:15.056Z,200
2018-05-11T14:55:25.168Z,200
2018-05-11T14:56:35.275Z,200
2018-05-11T14:57:45.177Z,200
2018-05-11T14:58:55.306Z,195
2018-05-11T15:00:05.135Z,195
2018-05-11T15:01:14.945Z,195
2018-05-11T15:02:24.787Z,195
2018-05-11T15:03:34.925Z,195
2018-05-11T15:04:45.042Z,195
2018-05-11T15:05:54.959Z,195
2018-05-11T15:07:04.553Z,195
2018-05-11T15:08:14.640Z,195
2018-05-11T15:09:24.738Z,195
2018-05-11T15:10:34.837Z,200
2018-05-11T15:11:44.954Z,200
2018-05-11T15:12:54.798Z,200
2018-05-11T15:14:04.889Z,200
2018-05-11T15:15:14.501Z,200
2018-05-11T15:16:24.343Z,200
2018-05-11T15:17:34.217Z,195
2018-05-11T15:18:44.324Z,195
2018-05-11T15:19:54.442Z,195
2018-05-11T15:21:04.544Z,195
2018-05-11T15:22:14.399Z,200
2018-05-11T15:23:24.520Z,205
2018-05-11T15:24:34.372Z,205
2018-05-11T15:25:44.208Z,205
2018-05-11T15:26:54.331Z,205
2018-05-11T15:28:04.417Z,210
2018-05-11T15:29:14.293Z,200
2018-05-11T15:30:23.852Z,205
2018-05-11T15:31:33.701Z,200
2018-05-11T15:32:43.803Z,200
2018-05-11T15:33:53.669Z,195
2018-05-11T15:35:03.245Z,190
2018-05-11T15:36:13.368Z,170
2018-05-11T15:37:23.451Z,170
2018-05-11T15:38:33.270Z,175
2018-05-11T15:39:43.372Z,175
2018-05-11T15:40:53.199Z,195
2018-05-11T15:42:03.050Z,180
2018-05-11T15:43:13.146Z,195
2018-05-11T15:44:23.430Z,170
2018-05-11T15:45:33.011Z,170
2018-05-11T15:46:43.129Z,165
2018-05-11T15:47:52.974Z,160
2018-05-11T15:49:03.064Z,160
2018-05-11T15:50:13.220Z,155
2018-05-11T15:51:23.333Z,150
2018-05-11T15:52:33.444Z,145
2018-05-11T15:53:43.570Z,145
2018-05-11T15:54:53.668Z,145
2018-05-11T15:56:03.821Z,145
2018-05-11T15:57:13.677Z,140
2018-05-11T15:58:23.794Z,140
2018-05-11T15:59:33.887Z,135
2018-05-11T16:00:43.744Z,130
2018-05-11T16:01:53.317Z,125
2018-05-11T16:03:03.393Z,120
2018-05-11T16:04:13.499Z,120
2018-05-11T16:05:23.601Z,120
2018-05-11T16:06:33.453Z,115
2018-05-11T16:07:43.546Z,115
2018-05-11T16:08:53.667Z,105
2018-05-11T16:10:03.768Z,95
2018-05-11T16:11:13.668Z,95
2018-05-11T16:12:23.810Z,90
2018-05-11T16:13:33.918Z,90
2018-05-11T16:14:44.023Z,85
2018-05-11T16:15:53.845Z,85
2018-05-11T16:17:03.739Z,85
2018-05-11T16:18:13.585Z,85
2018-05-11T16:19:23.677Z,80
2018-05-11T16:20:33.713Z,80
2018-05-11T16:21:43.829Z,80
2018-05-11T16:22:54.024Z,80
2018-05-11T16:24:04.194Z,80
2018-05-11T16:25:14.343Z,80
2018-05-11T16:26:24.438Z,75
2018-05-11T16:27:34.538Z,75
2018-05-11T16:28:44.631Z,75
2018-05-11T16:29:54.725Z,70
2018-05-11T16:31:04.579Z,70
2018-05-11T16:32:14.711Z,70
2018-05-11T16:33:24.283Z,70
2018-05-11T16:34:34.439Z,70
2018-05-11T16:35:44.253Z,70
2018-05-11T16:36:54.076Z,70
2018-05-11T16:38:04.164Z,70
2018-05-11T16:39:14.271Z,70
2018-05-11T16:40:24.422Z,65
2018-05-11T16:41:34.527Z,65
2018-05-11T16:42:44.617Z,65
2018-05-11T16:43:54.711Z,65
2018-05-11T16:45:04.555Z,60
2018-05-11T16:46:14.707Z,60
2018-05-11T16:47:24.557Z,60
2018-05-11T16:48:34.382Z,60
2018-05-11T16:49:44.502Z,60
2018-05-11T16:50:54.616Z,55
2018-05-11T16:52:04.774Z,55
2018-05-11T16:53:14.881Z,55
2018-05-11T16:54:24.987Z,55
2018-05-11T16:55:35.088Z,55
2018-05-11T16:56:45.178Z,55
2018-05-11T16:57:55.033Z,55
2018-05-11T16:59:04.862Z,55
2018-05-11T17:00:14.993Z,55
2018-05-11T17:01:25.119Z,55